Time;durP1;ratioP1;P1;durP2;ratioP2;P2;SDS_P1;SDS_P2;PMS_P1;PMS_P2;Temp;Humidity;BMP_temperature;BMP_pressure;BME280_temperature;BME280_humidity;BME280_pressure;Samples;Min_cycle;Max_cycle;Signal;HPM_P1;HPM_P2
2023/09/17 00:05:01;;;;;;;4.90;4.50;;;22.00;99.90;;;;;;10388336;28;20266;-81
2023/09/17 00:10:05;;;;;;;5.20;4.80;;;21.90;99.90;;;;;;10389289;28;20219;-81
2023/09/17 00:15:08;;;;;;;4.50;4.20;;;21.80;99.90;;;;;;10370362;28;20202;-81
2023/09/17 00:20:11;;;;;;;4.70;4.40;;;21.80;99.90;;;;;;10389090;28;20293;-81
2023/09/17 00:25:14;;;;;;;5.50;5.10;;;21.70;99.90;;;;;;10372029;28;20229;-81
2023/09/17 00:30:16;;;;;;;4.37;4.13;;;21.60;99.90;;;;;;10387908;28;20219;-81
2023/09/17 00:35:18;;;;;;;5.30;4.90;;;21.50;99.90;;;;;;10388653;28;20195;-81
2023/09/17 00:40:23;;;;;;;5.03;4.73;;;21.50;99.90;;;;;;10388236;28;20242;-81
2023/09/17 00:45:26;;;;;;;4.60;4.30;;;21.40;99.90;;;;;;10370669;28;20298;-81
2023/09/17 00:50:31;;;;;;;5.03;4.73;;;21.40;99.90;;;;;;10388194;28;20227;-81
2023/09/17 00:55:34;;;;;;;5.43;5.07;;;21.30;99.90;;;;;;10388567;28;20224;-80
2023/09/17 01:00:38;;;;;;;5.70;5.23;;;21.20;99.90;;;;;;10366363;28;20809;-80
2023/09/17 01:05:43;;;;;;;5.87;5.47;;;21.20;99.90;;;;;;10368345;28;20480;-81
2023/09/17 01:10:48;;;;;;;5.60;5.20;;;21.10;99.90;;;;;;10370144;28;20690;-80
2023/09/17 01:15:51;;;;;;;5.10;4.70;;;21.10;99.90;;;;;;10371191;28;20199;-81
2023/09/17 01:21:00;;;;;;;5.33;4.93;;;21.00;99.90;;;;;;10387347;28;20277;-80
2023/09/17 01:26:09;;;;;;;5.30;5.00;;;21.00;99.90;;;;;;10372007;28;20223;-80
2023/09/17 01:31:13;;;;;;;5.47;5.07;;;21.00;99.90;;;;;;10388757;28;20273;-81
2023/09/17 01:36:20;;;;;;;6.83;6.33;;;21.00;99.90;;;;;;10390540;28;20255;-80
2023/09/17 01:41:25;;;;;;;5.90;5.47;;;21.00;99.90;;;;;;10419778;28;20222;-78
2023/09/17 01:46:30;;;;;;;5.50;5.10;;;21.00;99.90;;;;;;10402706;28;20271;-81
2023/09/17 01:51:32;;;;;;;5.80;5.20;;;21.10;99.90;;;;;;10390630;28;20223;-81
2023/09/17 01:56:36;;;;;;;6.20;5.70;;;21.10;99.90;;;;;;10368416;28;20245;-80
2023/09/17 02:01:39;;;;;;;5.83;5.43;;;21.10;99.90;;;;;;10367488;28;20293;-80
2023/09/17 02:06:41;;;;;;;6.10;5.70;;;21.10;99.90;;;;;;10367164;28;20215;-81
2023/09/17 02:11:44;;;;;;;6.20;5.70;;;21.10;99.90;;;;;;10366738;28;20219;-80
2023/09/17 02:16:47;;;;;;;5.03;4.67;;;21.10;99.90;;;;;;10365849;28;20199;-81
2023/09/17 02:21:51;;;;;;;6.13;5.73;;;21.10;99.90;;;;;;10366236;28;20250;-81
2023/09/17 02:26:53;;;;;;;6.00;5.60;;;21.10;99.90;;;;;;10384184;28;20223;-81
2023/09/17 02:31:56;;;;;;;6.47;6.07;;;21.10;99.90;;;;;;10349600;28;20302;-81
2023/09/17 02:36:58;;;;;;;6.20;5.70;;;21.00;99.90;;;;;;10365357;28;20242;-81
2023/09/17 02:42:00;;;;;;;6.30;5.90;;;21.00;99.90;;;;;;10383483;28;20600;-81
2023/09/17 02:47:04;;;;;;;6.10;5.73;;;20.90;99.90;;;;;;10382540;28;20211;-80
2023/09/17 02:52:07;;;;;;;6.33;5.80;;;20.90;99.90;;;;;;10364525;28;20759;-80
2023/09/17 02:57:09;;;;;;;6.70;6.30;;;20.80;99.90;;;;;;10364126;28;20203;-80
2023/09/17 03:02:13;;;;;;;6.80;6.30;;;20.80;99.90;;;;;;10325480;28;20278;-79
2023/09/17 03:07:18;;;;;;;7.00;6.53;;;20.70;99.90;;;;;;10364422;28;20702;-79
2023/09/17 03:12:21;;;;;;;6.50;6.10;;;20.60;99.90;;;;;;10364247;28;20220;-80
2023/09/17 03:17:24;;;;;;;6.37;5.97;;;20.60;99.90;;;;;;10381124;28;20207;-79
2023/09/17 03:22:27;;;;;;;7.60;7.10;;;20.60;99.90;;;;;;10363649;28;20247;-80
2023/09/17 03:27:30;;;;;;;6.90;6.40;;;20.60;99.90;;;;;;10363549;28;20273;-80
2023/09/17 03:32:34;;;;;;;6.27;5.87;;;20.50;99.90;;;;;;10363909;28;20326;-80
2023/09/17 03:37:36;;;;;;;6.83;5.90;;;20.50;99.90;;;;;;10347313;28;20184;-80
2023/09/17 03:42:40;;;;;;;6.10;5.60;;;20.50;99.90;;;;;;10323376;28;20694;-80
2023/09/17 03:47:47;;;;;;;6.70;6.27;;;20.50;99.90;;;;;;10362903;28;20676;-80
2023/09/17 03:52:53;;;;;;;6.87;6.37;;;20.40;99.90;;;;;;10323309;28;20219;-80
2023/09/17 03:57:57;;;;;;;6.73;6.23;;;20.40;99.90;;;;;;10329472;28;20206;-80
2023/09/17 04:03:05;;;;;;;6.47;6.00;;;20.40;99.90;;;;;;10323356;28;20236;-80
2023/09/17 04:08:07;;;;;;;6.80;6.33;;;20.40;99.90;;;;;;10324561;28;20196;-80
2023/09/17 04:13:09;;;;;;;6.53;6.13;;;20.40;99.90;;;;;;10322781;28;20224;-80
2023/09/17 04:18:12;;;;;;;7.80;7.20;;;20.40;99.90;;;;;;10380932;28;20203;-80
2023/09/17 04:23:16;;;;;;;7.00;6.37;;;20.30;99.90;;;;;;10380670;28;20238;-79
2023/09/17 04:28:19;;;;;;;7.20;6.70;;;20.30;99.90;;;;;;10362920;28;20240;-80
2023/09/17 04:33:22;;;;;;;7.60;7.03;;;20.30;99.90;;;;;;10362609;28;20664;-79
2023/09/17 04:38:24;;;;;;;7.33;6.83;;;20.30;99.90;;;;;;10367876;28;20195;-80
2023/09/17 04:43:27;;;;;;;6.80;6.30;;;20.20;99.90;;;;;;10352313;28;20321;-79
2023/09/17 04:48:31;;;;;;;7.07;6.57;;;20.20;99.90;;;;;;10387232;28;20250;-80
2023/09/17 04:53:34;;;;;;;7.50;6.90;;;20.20;99.90;;;;;;10369881;28;20203;-80
2023/09/17 04:58:36;;;;;;;7.50;7.00;;;20.20;99.90;;;;;;10369896;28;20207;-80
2023/09/17 05:03:43;;;;;;;7.53;6.93;;;20.20;99.90;;;;;;10368935;28;20697;-80
2023/09/17 05:08:45;;;;;;;7.57;7.03;;;20.20;99.90;;;;;;10386824;28;20628;-80
2023/09/17 05:13:47;;;;;;;7.70;7.17;;;20.20;99.90;;;;;;10369283;28;20615;-80
2023/09/17 05:18:51;;;;;;;8.10;7.50;;;20.20;99.90;;;;;;10369031;28;20226;-80
2023/09/17 05:23:53;;;;;;;8.00;7.40;;;20.20;99.90;;;;;;10369444;28;20238;-80
2023/09/17 05:28:55;;;;;;;8.50;7.90;;;20.20;99.90;;;;;;10368167;28;20228;-80
2023/09/17 05:33:59;;;;;;;7.70;7.10;;;20.20;99.90;;;;;;10367848;28;20563;-80
2023/09/17 05:39:02;;;;;;;7.80;7.20;;;20.20;99.90;;;;;;10368157;28;20291;-80
2023/09/17 05:44:05;;;;;;;8.23;7.53;;;20.20;99.90;;;;;;10368319;28;20289;-80
2023/09/17 05:49:09;;;;;;;7.50;7.00;;;20.30;99.90;;;;;;10350862;28;20737;-81
2023/09/17 05:54:11;;;;;;;8.20;7.50;;;20.30;99.90;;;;;;10367018;28;20198;-80
2023/09/17 05:59:14;;;;;;;7.73;7.13;;;20.40;99.90;;;;;;10366889;28;20259;-80
2023/09/17 06:04:17;;;;;;;8.10;7.50;;;20.50;99.90;;;;;;10383907;28;20757;-80
2023/09/17 06:09:20;;;;;;;7.37;6.77;;;20.50;99.90;;;;;;10366635;28;20314;-80
2023/09/17 06:14:22;;;;;;;7.53;7.03;;;20.60;99.90;;;;;;10366438;28;20203;-80
2023/09/17 06:19:26;;;;;;;7.90;7.30;;;20.70;99.90;;;;;;10367912;28;20226;-80
2023/09/17 06:24:31;;;;;;;8.37;7.77;;;20.80;99.90;;;;;;10367538;28;20609;-80
2023/09/17 06:29:33;;;;;;;8.53;7.83;;;20.80;99.90;;;;;;10378115;28;20238;-80
2023/09/17 06:34:37;;;;;;;8.50;7.90;;;20.80;99.90;;;;;;10395052;28;20234;-80
2023/09/17 06:39:39;;;;;;;8.30;7.70;;;20.90;99.90;;;;;;10374208;28;20303;-80
2023/09/17 06:44:41;;;;;;;8.00;7.40;;;20.80;99.90;;;;;;10364388;28;20215;-80
2023/09/17 06:49:45;;;;;;;8.67;7.77;;;20.90;99.90;;;;;;10381716;28;20219;-81
2023/09/17 06:54:47;;;;;;;7.60;7.00;;;21.00;99.90;;;;;;10382799;28;20216;-81
2023/09/17 06:59:49;;;;;;;8.20;7.50;;;21.00;99.90;;;;;;10363045;28;20227;-81
2023/09/17 07:04:52;;;;;;;6.60;6.10;;;21.10;99.90;;;;;;10382108;28;20219;-81
2023/09/17 07:09:54;;;;;;;7.53;7.03;;;21.20;99.90;;;;;;10347877;28;20215;-81
2023/09/17 07:14:56;;;;;;;7.00;6.60;;;21.20;99.90;;;;;;10382099;28;20206;-80
2023/09/17 07:20:00;;;;;;;7.40;6.90;;;21.30;99.90;;;;;;10382120;28;20219;-81
2023/09/17 07:25:04;;;;;;;7.53;6.90;;;21.40;99.90;;;;;;10381919;28;20242;-81
2023/09/17 07:30:07;;;;;;;7.57;7.07;;;21.50;99.90;;;;;;10382364;28;20238;-80
2023/09/17 07:35:10;;;;;;;6.87;6.37;;;21.60;99.90;;;;;;10365636;28;20214;-80
2023/09/17 07:40:13;;;;;;;6.40;5.90;;;21.70;99.90;;;;;;10382248;28;20287;-81
2023/09/17 07:45:15;;;;;;;7.90;7.30;;;21.80;99.90;;;;;;10382437;28;20227;-80
2023/09/17 07:50:19;;;;;;;7.33;6.80;;;21.90;99.90;;;;;;10382286;28;20223;-81
2023/09/17 07:55:21;;;;;;;6.80;6.30;;;22.00;99.90;;;;;;10381683;28;20242;-80
2023/09/17 08:00:23;;;;;;;6.37;5.87;;;22.10;99.90;;;;;;10364473;28;20238;-81
2023/09/17 08:05:26;;;;;;;7.93;7.33;;;22.20;99.90;;;;;;10381393;28;20618;-81
2023/09/17 08:10:28;;;;;;;7.57;6.87;;;22.30;99.90;;;;;;10381384;28;20229;-81
2023/09/17 08:15:30;;;;;;;6.30;5.80;;;22.30;99.90;;;;;;10389729;28;20266;-81
2023/09/17 08:20:34;;;;;;;6.50;5.97;;;22.40;99.90;;;;;;10388813;28;20215;-81
2023/09/17 08:25:36;;;;;;;6.40;5.90;;;22.50;99.90;;;;;;10389381;28;20223;-81
2023/09/17 08:30:39;;;;;;;10.43;6.10;;;22.60;99.90;;;;;;10388675;28;20237;-81
2023/09/17 08:35:42;;;;;;;5.87;5.13;;;22.70;99.90;;;;;;10389397;28;20279;-81
2023/09/17 08:40:45;;;;;;;9.90;4.60;;;22.90;99.90;;;;;;10388886;28;20223;-80
2023/09/17 08:45:47;;;;;;;4.87;4.47;;;23.00;99.90;;;;;;10371614;28;20215;-81
2023/09/17 08:50:53;;;;;;;6.20;5.07;;;23.10;99.90;;;;;;10389094;28;20223;-81
2023/09/17 08:55:58;;;;;;;5.00;4.67;;;23.10;99.90;;;;;;10371761;28;20203;-81
2023/09/17 09:01:06;;;;;;;6.80;4.00;;;23.10;99.90;;;;;;10388363;28;20227;-81
2023/09/17 09:06:11;;;;;;;4.77;4.27;;;23.10;99.90;;;;;;10389023;28;20318;-81
2023/09/17 09:11:14;;;;;;;5.07;4.67;;;23.10;99.90;;;;;;10387916;28;20697;-80
2023/09/17 09:16:16;;;;;;;4.40;4.00;;;23.10;99.90;;;;;;10388556;28;20567;-81
2023/09/17 09:21:20;;;;;;;13.77;11.07;;;23.20;99.90;;;;;;10371310;28;20227;-81
2023/09/17 09:26:23;;;;;;;10.10;7.70;;;23.20;99.90;;;;;;10391781;28;20242;-81
2023/09/17 09:31:26;;;;;;;4.60;4.20;;;23.30;99.90;;;;;;10391637;28;20944;-81
2023/09/17 09:36:32;;;;;;;5.30;4.03;;;23.30;99.90;;;;;;10404849;28;20432;-80
2023/09/17 09:41:35;;;;;;;3.93;3.73;;;23.40;99.90;;;;;;10395573;28;20215;-79
2023/09/17 09:46:37;;;;;;;7.07;4.57;;;23.60;99.90;;;;;;10413148;28;20222;-80
2023/09/17 09:51:42;;;;;;;12.03;3.63;;;23.90;99.90;;;;;;10391653;28;20262;-80
2023/09/17 09:56:47;;;;;;;4.27;3.53;;;24.30;99.90;;;;;;10375465;28;20618;-81
2023/09/17 10:01:49;;;;;;;4.20;3.70;;;24.70;99.90;;;;;;10385066;28;20242;-81
2023/09/17 10:06:53;;;;;;;4.00;3.70;;;24.90;99.90;;;;;;10386502;28;20273;-81
2023/09/17 10:11:55;;;;;;;5.30;3.60;;;25.00;99.80;;;;;;10380340;28;20224;-81
2023/09/17 10:17:00;;;;;;;4.27;3.87;;;25.00;99.80;;;;;;10373692;28;20285;-81
2023/09/17 10:22:07;;;;;;;4.13;3.73;;;24.80;99.70;;;;;;10383100;28;20715;-81
2023/09/17 10:27:10;;;;;;;5.30;4.03;;;24.70;99.90;;;;;;10382506;28;20215;-81
2023/09/17 10:32:12;;;;;;;5.87;3.80;;;24.60;99.60;;;;;;10366552;28;20251;-81
2023/09/17 10:37:17;;;;;;;4.50;4.10;;;24.60;99.70;;;;;;10379750;28;20263;-82
2023/09/17 10:42:21;;;;;;;4.00;3.17;;;24.60;99.90;;;;;;10378808;28;20251;-81
2023/09/17 10:47:25;;;;;;;5.70;3.90;;;24.60;99.90;;;;;;10376729;28;20266;-81
2023/09/17 10:52:29;;;;;;;4.10;3.70;;;24.70;99.70;;;;;;10378367;28;20223;-81
2023/09/17 10:57:38;;;;;;;4.07;3.50;;;24.80;99.80;;;;;;10376427;28;20210;-81
2023/09/17 11:02:45;;;;;;;4.77;4.30;;;24.90;99.20;;;;;;10372921;28;20242;-81
2023/09/17 11:07:49;;;;;;;4.60;3.63;;;25.00;99.50;;;;;;10375918;28;20215;-81
2023/09/17 11:12:52;;;;;;;4.57;4.10;;;25.00;99.60;;;;;;10377572;28;20250;-82
2023/09/17 11:17:59;;;;;;;3.67;3.37;;;25.00;99.40;;;;;;10372300;28;20659;-81
2023/09/17 11:23:05;;;;;;;4.00;3.70;;;25.00;99.00;;;;;;10366950;28;20230;-81
2023/09/17 11:28:11;;;;;;;4.10;3.70;;;25.10;98.00;;;;;;10377469;28;20219;-81
2023/09/17 11:33:13;;;;;;;7.23;4.07;;;25.10;98.50;;;;;;10378228;28;20215;-81
2023/09/17 11:38:17;;;;;;;3.53;3.23;;;25.20;97.70;;;;;;10378072;28;20211;-81
2023/09/17 11:43:19;;;;;;;4.13;3.47;;;25.30;98.20;;;;;;10383909;28;20211;-82
2023/09/17 11:48:21;;;;;;;4.10;3.33;;;25.30;98.40;;;;;;10388137;28;20223;-82
2023/09/17 11:53:25;;;;;;;6.90;3.10;;;25.40;98.30;;;;;;10391049;28;20254;-81
2023/09/17 11:58:32;;;;;;;3.80;3.20;;;25.40;97.90;;;;;;10373549;28;20207;-81
2023/09/17 12:03:34;;;;;;;5.13;2.80;;;25.50;97.30;;;;;;10389694;28;20199;-82
2023/09/17 12:08:37;;;;;;;5.60;3.60;;;25.60;98.10;;;;;;10373732;28;20227;-81
2023/09/17 12:13:40;;;;;;;3.27;3.00;;;25.70;95.40;;;;;;10388769;28;20202;-81
2023/09/17 12:18:42;;;;;;;3.33;3.13;;;26.00;95.90;;;;;;10373808;28;20226;-81
2023/09/17 12:23:54;;;;;;;3.63;3.33;;;26.10;96.30;;;;;;10388010;28;20678;-81
2023/09/17 12:28:56;;;;;;;3.50;3.20;;;26.10;96.50;;;;;;10391133;28;20227;-81
2023/09/17 12:33:59;;;;;;;3.10;2.80;;;26.20;97.30;;;;;;10391237;28;20204;-82
2023/09/17 12:39:03;;;;;;;3.53;3.23;;;26.10;97.10;;;;;;10391011;28;20230;-82
2023/09/17 12:44:05;;;;;;;3.73;3.40;;;26.20;97.50;;;;;;10379485;28;20207;-81
2023/09/17 12:49:07;;;;;;;4.90;3.27;;;26.00;96.70;;;;;;10358685;28;20713;-81
2023/09/17 12:54:11;;;;;;;3.30;3.10;;;26.00;97.60;;;;;;10382859;28;20666;-81
2023/09/17 12:59:13;;;;;;;3.00;2.80;;;25.80;97.60;;;;;;10393208;28;20226;-81
2023/09/17 13:04:15;;;;;;;4.10;3.37;;;25.70;98.20;;;;;;10384999;28;20571;-82
2023/09/17 13:09:18;;;;;;;6.90;3.30;;;25.60;97.80;;;;;;10383396;28;20250;-82
2023/09/17 13:14:21;;;;;;;3.20;3.00;;;25.50;98.20;;;;;;10388021;28;20202;-81
2023/09/17 13:19:23;;;;;;;3.40;3.10;;;25.50;98.00;;;;;;10371484;28;20207;-82
2023/09/17 13:24:27;;;;;;;3.47;3.17;;;25.50;97.00;;;;;;10388292;28;20198;-81
2023/09/17 13:29:35;;;;;;;5.57;3.77;;;25.50;97.30;;;;;;10370696;28;20227;-81
2023/09/17 13:34:38;;;;;;;6.70;3.47;;;25.50;98.20;;;;;;10369788;28;20204;-81
2023/09/17 13:39:43;;;;;;;3.87;3.47;;;25.40;99.10;;;;;;10388043;28;20219;-81
2023/09/17 13:44:46;;;;;;;4.93;3.30;;;25.30;97.90;;;;;;10387897;28;20202;-81
2023/09/17 13:49:48;;;;;;;3.87;3.57;;;25.30;98.40;;;;;;10387617;28;20223;-81
2023/09/17 13:54:51;;;;;;;6.03;2.90;;;25.50;96.60;;;;;;10387250;28;20217;-82
2023/09/17 13:59:53;;;;;;;5.93;3.27;;;25.60;96.10;;;;;;10387656;28;20231;-81
2023/09/17 14:04:56;;;;;;;4.30;2.63;;;25.70;96.30;;;;;;10387789;28;20672;-82
2023/09/17 14:09:59;;;;;;;9.90;3.70;;;25.80;95.60;;;;;;10386524;28;20230;-82
2023/09/17 14:15:01;;;;;;;2.90;2.70;;;25.80;96.00;;;;;;10387860;28;21183;-82
2023/09/17 14:20:04;;;;;;;4.40;3.10;;;25.90;95.90;;;;;;10386889;28;20215;-81
2023/09/17 14:25:09;;;;;;;6.00;3.17;;;25.90;95.60;;;;;;10387366;28;20225;-82
2023/09/17 14:30:16;;;;;;;2.80;2.60;;;25.90;94.60;;;;;;10386224;28;20223;-81
2023/09/17 14:35:18;;;;;;;6.87;4.37;;;26.00;95.10;;;;;;10386880;28;20199;-81
2023/09/17 14:40:22;;;;;;;3.07;2.30;;;26.00;93.90;;;;;;10368650;28;20326;-81
2023/09/17 14:45:24;;;;;;;5.03;2.77;;;26.00;95.40;;;;;;10386376;28;20280;-81
2023/09/17 14:50:26;;;;;;;2.90;2.40;;;26.00;95.60;;;;;;10385896;28;20670;-81
2023/09/17 14:55:30;;;;;;;4.73;2.80;;;26.10;94.20;;;;;;10386215;28;20700;-82
2023/09/17 15:00:32;;;;;;;3.60;2.67;;;26.10;93.60;;;;;;10386328;28;20231;-82
2023/09/17 15:05:34;;;;;;;4.17;2.57;;;26.10;94.10;;;;;;10385438;28;20700;-81
2023/09/17 15:10:38;;;;;;;6.87;2.83;;;26.10;94.70;;;;;;10368178;28;20301;-81
2023/09/17 15:15:40;;;;;;;4.43;2.67;;;26.10;94.30;;;;;;10367817;28;20204;-81
2023/09/17 15:20:43;;;;;;;3.73;2.60;;;26.00;93.90;;;;;;10367740;28;20222;-82
2023/09/17 15:25:46;;;;;;;4.77;2.57;;;25.90;92.90;;;;;;10367324;28;20218;-82
2023/09/17 15:30:49;;;;;;;3.27;2.70;;;25.90;93.90;;;;;;10385973;28;20280;-81
2023/09/17 15:35:53;;;;;;;2.80;2.60;;;25.80;94.90;;;;;;10385449;28;20200;-82
2023/09/17 15:40:56;;;;;;;5.33;2.80;;;25.70;94.80;;;;;;10387727;28;20219;-82
2023/09/17 15:45:58;;;;;;;3.70;3.00;;;25.60;94.50;;;;;;10384264;28;20221;-82
2023/09/17 15:51:00;;;;;;;2.87;2.67;;;25.60;94.80;;;;;;10384265;28;20261;-81
2023/09/17 15:56:04;;;;;;;3.90;2.80;;;25.50;95.80;;;;;;10384435;28;20593;-81
2023/09/17 16:01:06;;;;;;;3.50;3.20;;;25.40;95.80;;;;;;10383648;28;20227;-81
2023/09/17 16:06:08;;;;;;;5.43;2.67;;;25.30;94.90;;;;;;10381914;28;20601;-81
2023/09/17 16:11:11;;;;;;;2.83;2.47;;;25.20;95.10;;;;;;10379237;28;20215;-81
2023/09/17 16:16:14;;;;;;;3.50;2.63;;;25.20;95.30;;;;;;10384235;28;20200;-82
2023/09/17 16:21:16;;;;;;;2.87;2.67;;;25.20;95.00;;;;;;10383209;28;20238;-82
2023/09/17 16:26:20;;;;;;;5.07;2.70;;;25.30;95.20;;;;;;10384646;28;20212;-82
2023/09/17 16:31:22;;;;;;;2.90;2.60;;;25.40;95.10;;;;;;10383160;28;20223;-81
2023/09/17 16:36:24;;;;;;;3.60;3.30;;;25.50;95.10;;;;;;10392095;28;20238;-82
2023/09/17 16:41:28;;;;;;;3.40;3.10;;;25.50;95.20;;;;;;10391644;28;20231;-81
2023/09/17 16:46:30;;;;;;;5.70;3.60;;;25.50;95.30;;;;;;10391452;28;20305;-81
2023/09/17 16:51:36;;;;;;;4.40;3.90;;;25.50;95.40;;;;;;10390156;28;20277;-81
2023/09/17 16:56:42;;;;;;;4.30;2.90;;;25.40;95.40;;;;;;10372304;28;20690;-81
2023/09/17 17:01:44;;;;;;;3.97;3.27;;;25.30;95.60;;;;;;10388404;28;20219;-82
2023/09/17 17:06:46;;;;;;;4.07;2.50;;;25.20;95.70;;;;;;10389411;28;20219;-81
2023/09/17 17:11:52;;;;;;;4.83;4.30;;;25.10;95.80;;;;;;10389315;28;20219;-81
2023/09/17 17:16:55;;;;;;;4.80;2.70;;;25.00;96.60;;;;;;10389291;28;20191;-81
2023/09/17 17:21:57;;;;;;;4.57;3.23;;;24.90;96.70;;;;;;10388541;28;20226;-81
2023/09/17 17:27:00;;;;;;;5.00;3.57;;;24.80;97.50;;;;;;10385643;28;20218;-80
2023/09/17 17:32:03;;;;;;;3.43;2.97;;;24.70;97.20;;;;;;10378766;28;20241;-81
2023/09/17 17:37:05;;;;;;;4.97;3.40;;;24.60;97.00;;;;;;10357219;28;20207;-81
2023/09/17 17:42:08;;;;;;;4.20;3.30;;;24.60;97.10;;;;;;10337131;28;20827;-80
2023/09/17 17:47:10;;;;;;;3.80;2.80;;;24.50;97.20;;;;;;10346132;28;20219;-81
2023/09/17 17:52:13;;;;;;;4.23;3.13;;;24.40;97.10;;;;;;10361445;28;20219;-81
2023/09/17 17:57:18;;;;;;;6.87;4.33;;;24.40;97.20;;;;;;10347917;28;20203;-80
2023/09/17 18:02:21;;;;;;;5.73;3.30;;;24.40;97.30;;;;;;10344601;28;20241;-80
2023/09/17 18:07:23;;;;;;;5.80;3.13;;;24.40;97.50;;;;;;10352623;28;20227;-79
2023/09/17 18:12:29;;;;;;;3.17;2.93;;;24.30;97.80;;;;;;10347256;28;20211;-80
2023/09/17 18:17:31;;;;;;;3.57;3.03;;;24.20;97.70;;;;;;10353656;28;20207;-80
2023/09/17 18:22:33;;;;;;;5.10;4.03;;;24.10;97.90;;;;;;10350926;28;20215;-80
2023/09/17 18:27:37;;;;;;;4.43;3.90;;;24.10;98.00;;;;;;10364602;28;20227;-80
2023/09/17 18:32:39;;;;;;;4.53;3.60;;;24.00;98.00;;;;;;10382891;28;20249;-80
2023/09/17 18:37:41;;;;;;;6.80;3.70;;;24.00;97.80;;;;;;10342474;28;20196;-80
2023/09/17 18:42:45;;;;;;;4.37;3.97;;;24.00;97.90;;;;;;10361666;28;20726;-79
2023/09/17 18:47:47;;;;;;;4.90;4.37;;;23.90;98.10;;;;;;10360294;28;20238;-79
2023/09/17 18:52:49;;;;;;;5.40;4.47;;;23.90;98.00;;;;;;10359963;28;20334;-79
2023/09/17 18:57:53;;;;;;;4.90;4.40;;;23.80;98.30;;;;;;10362699;28;20206;-80
2023/09/17 19:02:55;;;;;;;4.90;3.43;;;23.80;98.80;;;;;;10367104;28;20235;-80
2023/09/17 19:07:57;;;;;;;2.80;2.60;;;23.70;98.30;;;;;;10339999;28;20223;-80
2023/09/17 19:13:01;;;;;;;6.00;3.67;;;23.70;98.00;;;;;;10352403;28;20219;-80
2023/09/17 19:18:03;;;;;;;4.57;3.23;;;23.70;97.90;;;;;;10348779;28;20207;-79
2023/09/17 19:23:05;;;;;;;3.67;3.00;;;23.70;97.80;;;;;;10364210;28;20227;-80
2023/09/17 19:28:09;;;;;;;2.77;2.57;;;23.70;97.80;;;;;;10356057;28;20227;-80
2023/09/17 19:33:11;;;;;;;3.50;2.90;;;23.70;97.80;;;;;;10370871;28;20223;-80
2023/09/17 19:38:13;;;;;;;3.33;2.97;;;23.70;97.80;;;;;;10303112;28;20200;-79
2023/09/17 19:43:16;;;;;;;3.10;2.90;;;23.70;98.00;;;;;;10336017;28;20224;-80
2023/09/17 19:48:19;;;;;;;2.90;2.70;;;23.60;98.40;;;;;;10346965;28;20619;-80
2023/09/17 19:53:21;;;;;;;5.10;3.20;;;23.60;98.40;;;;;;10336353;28;20223;-80
2023/09/17 19:58:25;;;;;;;6.20;2.77;;;23.50;99.00;;;;;;10348351;28;20584;-80
2023/09/17 20:03:27;;;;;;;3.40;3.20;;;23.40;99.80;;;;;;10332110;28;20265;-80
2023/09/17 20:08:29;;;;;;;3.60;3.30;;;23.30;99.90;;;;;;10339093;28;20316;-79
2023/09/17 20:13:32;;;;;;;3.83;3.27;;;23.20;99.90;;;;;;10306261;28;20200;-80
2023/09/17 20:18:34;;;;;;;3.67;3.33;;;23.10;99.90;;;;;;10332445;28;20260;-80
2023/09/17 20:23:37;;;;;;;3.40;3.20;;;23.00;99.90;;;;;;10351250;28;20282;-79
2023/09/17 20:28:41;;;;;;;8.80;3.27;;;23.00;99.90;;;;;;10359243;28;20238;-79
2023/09/17 20:33:43;;;;;;;3.00;2.73;;;22.90;99.90;;;;;;10378121;28;20215;-80
2023/09/17 20:38:46;;;;;;;4.80;3.13;;;22.90;99.90;;;;;;10359758;28;20206;-79
2023/09/17 20:43:49;;;;;;;4.20;3.00;;;22.80;99.90;;;;;;10357410;28;20207;-80
2023/09/17 20:48:51;;;;;;;4.00;3.60;;;22.80;99.90;;;;;;10378003;28;20228;-79
2023/09/17 20:53:53;;;;;;;3.30;3.10;;;22.80;99.90;;;;;;10357935;28;20231;-78
2023/09/17 20:58:58;;;;;;;3.60;3.40;;;22.70;99.90;;;;;;10385485;28;20314;-79
2023/09/17 21:04:02;;;;;;;4.07;3.77;;;22.70;99.90;;;;;;10397492;22;20270;-82
2023/09/17 21:09:29;;;;;;;3.57;3.27;;;22.70;99.90;;;;;;10366495;28;20310;-82
2023/09/17 21:14:34;;;;;;;4.23;3.43;;;22.60;99.90;;;;;;10293383;28;20209;-83
2023/09/17 21:19:39;;;;;;;4.13;3.73;;;22.60;99.90;;;;;;10305536;28;20774;-82
2023/09/17 21:24:41;;;;;;;4.00;2.83;;;22.50;99.90;;;;;;10322534;28;20234;-83
2023/09/17 21:29:45;;;;;;;3.70;3.37;;;22.50;99.90;;;;;;10303029;28;20217;-83
2023/09/17 21:34:47;;;;;;;4.00;3.70;;;22.50;99.90;;;;;;10281150;28;20264;-83
2023/09/17 21:39:49;;;;;;;4.20;3.83;;;22.50;99.90;;;;;;10312278;28;20220;-83
2023/09/17 21:44:52;;;;;;;3.60;3.30;;;22.50;99.90;;;;;;10307670;28;20212;-82
2023/09/17 21:49:59;;;;;;;3.70;3.30;;;22.40;99.90;;;;;;10303887;28;20240;-83
2023/09/17 21:55:01;;;;;;;4.07;3.77;;;22.40;99.90;;;;;;10329610;28;20214;-83
2023/09/17 22:00:07;;;;;;;4.43;4.13;;;22.40;99.90;;;;;;10307350;28;20236;-83
2023/09/17 22:05:09;;;;;;;3.60;3.40;;;22.40;99.90;;;;;;10333754;28;20314;-83
2023/09/17 22:10:11;;;;;;;3.83;3.63;;;22.30;99.90;;;;;;10308112;28;20290;-83
2023/09/17 22:15:15;;;;;;;4.27;3.90;;;22.30;99.90;;;;;;10298315;28;20332;-83
2023/09/17 22:20:18;;;;;;;4.10;3.70;;;22.30;99.90;;;;;;10303493;28;20224;-83
2023/09/17 22:25:21;;;;;;;3.67;3.47;;;22.20;99.90;;;;;;10308543;28;20212;-83
2023/09/17 22:30:26;;;;;;;4.03;3.73;;;22.20;99.90;;;;;;10303559;28;20599;-82
2023/09/17 22:35:28;;;;;;;4.00;3.57;;;22.20;99.90;;;;;;10298208;28;20212;-83
2023/09/17 22:40:30;;;;;;;4.30;4.00;;;22.20;99.90;;;;;;10323411;28;20579;-82
2023/09/17 22:45:34;;;;;;;4.47;4.07;;;22.10;99.90;;;;;;10291737;28;20210;-83
2023/09/17 22:50:36;;;;;;;4.13;3.83;;;22.10;99.90;;;;;;10282138;28;20228;-83
2023/09/17 22:55:38;;;;;;;5.63;4.10;;;22.00;99.90;;;;;;10292775;28;20204;-83
2023/09/17 23:00:43;;;;;;;3.60;3.40;;;22.00;99.90;;;;;;10299348;28;20246;-82
2023/09/17 23:05:45;;;;;;;4.10;3.80;;;21.90;99.90;;;;;;10328616;28;20671;-83
2023/09/17 23:10:47;;;;;;;4.20;3.90;;;21.90;99.90;;;;;;10292247;28;20313;-82
2023/09/17 23:15:51;;;;;;;4.37;3.97;;;21.90;99.90;;;;;;10290994;28;20235;-83
2023/09/17 23:20:53;;;;;;;3.80;3.50;;;21.80;99.90;;;;;;10315242;28;20270;-82
2023/09/17 23:25:55;;;;;;;4.97;4.23;;;21.80;99.90;;;;;;10301709;28;20201;-83
2023/09/17 23:31:03;;;;;;;4.13;3.80;;;21.80;99.90;;;;;;10324571;28;20229;-82
2023/09/17 23:36:06;;;;;;;4.90;4.50;;;21.70;99.90;;;;;;10309635;28;20315;-83
2023/09/17 23:41:08;;;;;;;5.97;3.93;;;21.70;99.90;;;;;;10285138;28;20259;-83
2023/09/17 23:46:11;;;;;;;4.30;4.00;;;21.70;99.90;;;;;;10292226;28;20216;-83
2023/09/17 23:51:14;;;;;;;3.87;3.57;;;21.60;99.90;;;;;;10307960;28;20733;-83
2023/09/17 23:56:16;;;;;;;4.37;4.07;;;21.60;99.90;;;;;;10310297;28;20212;-82
